createdAt,value
2022-10-11T00:01:16.989Z,9.71
2022-10-11T00:03:43.400Z,9.76
2022-10-11T00:06:09.836Z,9.76
2022-10-11T00:08:36.197Z,9.67
2022-10-11T00:11:06.221Z,9.37
2022-10-11T00:13:33.239Z,9.31
2022-10-11T00:16:00.045Z,9.49
2022-10-11T00:18:26.690Z,9.53
2022-10-11T00:21:01.617Z,9.46
2022-10-11T00:23:28.080Z,9.36
2022-10-11T00:26:02.861Z,9.41
2022-10-11T00:28:29.480Z,9.43
2022-10-11T00:30:55.983Z,9.21
2022-10-11T00:33:22.518Z,8.96
2022-10-11T00:35:48.981Z,9.01
2022-10-11T00:38:15.725Z,9.04
2022-10-11T00:40:42.134Z,9.06
2022-10-11T00:43:24.043Z,9.13
2022-10-11T00:45:56.493Z,9.12
2022-10-11T00:48:36.442Z,9.14
2022-10-11T00:51:06.673Z,9.17
2022-10-11T00:53:33.991Z,9.21
2022-10-11T00:56:07.129Z,9.22
2022-10-11T00:58:36.231Z,9.22
2022-10-11T01:01:03.254Z,9.07
2022-10-11T01:03:34.944Z,8.85
2022-10-11T01:06:03.523Z,8.79
2022-10-11T01:08:31.317Z,8.72
2022-10-11T01:10:58.434Z,8.59
2022-10-11T01:13:46.288Z,8.67
2022-10-11T01:16:20.857Z,8.65
2022-10-11T01:19:05.316Z,8.48
2022-10-11T01:21:52.020Z,8.45
2022-10-11T01:24:27.344Z,8.56
2022-10-11T01:27:28.058Z,8.40
2022-10-11T01:30:08.469Z,8.36
2022-10-11T01:32:44.141Z,8.33
2022-10-11T01:35:38.478Z,8.32
2022-10-11T01:38:23.182Z,8.28
2022-10-11T01:40:55.124Z,8.30
2022-10-11T01:43:24.020Z,8.31
2022-10-11T01:45:52.507Z,8.36
2022-10-11T01:48:18.969Z,8.34
2022-10-11T01:50:53.624Z,8.29
2022-10-11T01:53:44.552Z,8.34
2022-10-11T01:56:29.487Z,8.46
2022-10-11T01:59:05.533Z,8.52
2022-10-11T02:01:39.732Z,8.65
2022-10-11T02:04:33.311Z,8.76
2022-10-11T02:07:13.240Z,8.79
2022-10-11T02:09:52.457Z,8.78
2022-10-11T02:12:47.962Z,8.49
2022-10-11T02:15:17.173Z,8.55
2022-10-11T02:17:49.291Z,8.70
2022-10-11T02:20:20.873Z,8.64
2022-10-11T02:22:52.230Z,8.54
2022-10-11T02:25:30.585Z,8.51
2022-10-11T02:28:00.640Z,8.54
2022-10-11T02:30:27.641Z,8.63
2022-10-11T02:32:55.965Z,8.68
2022-10-11T02:35:27.245Z,8.64
2022-10-11T02:38:10.189Z,8.67
2022-10-11T02:40:40.600Z,8.80
2022-10-11T02:43:32.906Z,8.78
2022-10-11T02:46:01.166Z,8.79
2022-10-11T02:48:29.334Z,8.75
2022-10-11T02:50:57.270Z,8.77
2022-10-11T02:53:25.278Z,8.72
2022-10-11T02:55:53.529Z,8.86
2022-10-11T02:58:20.917Z,8.78
2022-10-11T03:00:47.457Z,8.77
2022-10-11T03:03:13.950Z,8.70
2022-10-11T03:05:41.481Z,8.47
2022-10-11T03:08:09.937Z,8.47
2022-10-11T03:10:37.207Z,8.38
2022-10-11T03:13:04.226Z,8.41
2022-10-11T03:15:30.642Z,8.36
2022-10-11T03:17:57.505Z,8.38
2022-10-11T03:20:24.688Z,8.32
2022-10-11T03:22:51.275Z,8.33
2022-10-11T03:25:18.006Z,8.35
2022-10-11T03:27:44.440Z,8.23
2022-10-11T03:30:14.128Z,8.15
2022-10-11T03:32:44.365Z,7.99
2022-10-11T03:35:10.836Z,7.98
2022-10-11T03:37:37.351Z,7.89
2022-10-11T03:40:05.577Z,7.87
2022-10-11T03:42:31.954Z,7.85
2022-10-11T03:44:59.731Z,7.93
2022-10-11T03:47:26.222Z,7.83
2022-10-11T03:49:52.899Z,7.83
2022-10-11T03:52:19.259Z,7.85
2022-10-11T03:54:45.675Z,7.83
2022-10-11T03:57:12.138Z,7.70
2022-10-11T03:59:38.490Z,7.74
2022-10-11T04:02:04.960Z,7.68
2022-10-11T04:04:31.635Z,7.54
2022-10-11T04:06:58.005Z,7.74
2022-10-11T04:09:24.416Z,7.69
2022-10-11T04:11:50.762Z,7.73
2022-10-11T04:14:17.282Z,7.70
2022-10-11T04:16:43.684Z,7.73
2022-10-11T04:19:10.117Z,7.63
2022-10-11T04:21:36.732Z,7.85
2022-10-11T04:24:03.197Z,8.01
2022-10-11T04:26:29.651Z,7.84
2022-10-11T04:28:56.208Z,7.77
2022-10-11T04:31:22.632Z,7.85
2022-10-11T04:33:49.059Z,7.77
2022-10-11T04:36:15.507Z,7.73
2022-10-11T04:38:41.970Z,7.72
2022-10-11T04:41:10.437Z,7.99
2022-10-11T04:43:37.040Z,7.75
2022-10-11T04:46:03.581Z,7.75
2022-10-11T04:48:30.232Z,7.75
2022-10-11T04:50:56.624Z,7.75
2022-10-11T04:53:23.320Z,7.86
2022-10-11T04:56:18.333Z,7.63
2022-10-11T04:58:48.110Z,7.74
2022-10-11T05:01:15.221Z,7.77
2022-10-11T05:03:41.614Z,7.79
2022-10-11T05:06:08.517Z,7.97
2022-10-11T05:08:35.196Z,8.01
2022-10-11T05:11:04.617Z,7.82
2022-10-11T05:13:32.773Z,7.83
2022-10-11T05:15:59.202Z,7.71
2022-10-11T05:18:26.317Z,7.74
2022-10-11T05:20:59.865Z,7.76
2022-10-11T05:23:26.910Z,7.68
2022-10-11T05:25:53.680Z,7.65
2022-10-11T05:28:20.094Z,7.74
2022-10-11T05:30:46.543Z,7.88
2022-10-11T05:33:12.919Z,8.00
2022-10-11T05:35:39.293Z,7.87
2022-10-11T05:38:05.728Z,7.86
2022-10-11T05:40:33.367Z,7.86
2022-10-11T05:42:59.712Z,7.86
2022-10-11T05:45:26.256Z,7.98
2022-10-11T05:47:52.661Z,7.97
2022-10-11T05:50:23.393Z,7.81
2022-10-11T05:52:50.731Z,7.99
2022-10-11T05:55:17.457Z,8.05
2022-10-11T05:57:44.384Z,7.98
2022-10-11T06:00:11.193Z,8.23
2022-10-11T06:02:37.564Z,8.07
2022-10-11T06:05:04.144Z,8.20
2022-10-11T06:07:30.877Z,8.12
2022-10-11T06:09:57.247Z,8.17
2022-10-11T06:12:23.658Z,8.24
2022-10-11T06:14:50.059Z,8.26
2022-10-11T06:17:16.461Z,8.24
2022-10-11T06:19:42.861Z,8.27
2022-10-11T06:22:11.706Z,8.37
2022-10-11T06:24:38.115Z,8.39
2022-10-11T06:27:04.632Z,8.39
2022-10-11T06:29:30.981Z,8.48
2022-10-11T06:31:58.404Z,8.30
2022-10-11T06:34:24.827Z,8.31
2022-10-11T06:36:51.699Z,8.40
2022-10-11T06:39:18.107Z,8.49
2022-10-11T06:41:44.643Z,8.55
2022-10-11T06:44:14.326Z,8.70
2022-10-11T06:46:41.361Z,8.83
2022-10-11T06:49:07.921Z,8.81
2022-10-11T06:51:35.628Z,8.96
2022-10-11T06:54:02.676Z,8.99
2022-10-11T06:56:31.176Z,9.04
2022-10-11T06:58:59.269Z,9.13
2022-10-11T07:01:26.585Z,9.01
2022-10-11T07:03:55.052Z,8.90
2022-10-11T07:06:27.115Z,8.94
2022-10-11T07:08:54.438Z,8.95
2022-10-11T07:11:23.750Z,8.79
2022-10-11T07:13:52.528Z,9.02
2022-10-11T07:16:20.164Z,9.08
2022-10-11T07:18:47.865Z,9.15
2022-10-11T07:21:16.011Z,9.18
2022-10-11T07:23:42.886Z,9.20
2022-10-11T07:26:10.726Z,9.08
2022-10-11T07:28:38.649Z,9.12
2022-10-11T07:31:12.521Z,9.14
2022-10-11T07:33:39.139Z,9.35
2022-10-11T07:36:06.688Z,9.08
2022-10-11T07:38:33.740Z,9.20
2022-10-11T07:41:05.248Z,9.30
2022-10-11T07:43:32.019Z,9.39
2022-10-11T07:46:03.955Z,9.47
2022-10-11T07:48:33.774Z,9.58
2022-10-11T07:51:12.374Z,9.67
2022-10-11T07:53:43.924Z,9.44
2022-10-11T07:56:14.649Z,9.61
2022-10-11T07:58:42.104Z,9.52
2022-10-11T08:01:09.702Z,9.46
2022-10-11T08:03:37.696Z,9.56
2022-10-11T08:06:08.005Z,9.64
2022-10-11T08:08:35.513Z,9.76
2022-10-11T08:11:02.055Z,9.62
2022-10-11T08:13:28.838Z,9.69
2022-10-11T08:15:55.276Z,9.75
2022-10-11T08:18:21.703Z,9.93
2022-10-11T08:20:48.823Z,10.02
2022-10-11T08:23:16.951Z,10.34
2022-10-11T08:25:45.567Z,10.73
2022-10-11T08:28:18.772Z,11.18
2022-10-11T08:30:49.985Z,12.05
2022-10-11T08:33:17.547Z,12.89
2022-10-11T08:35:44.763Z,13.31
2022-10-11T08:38:11.258Z,13.78
2022-10-11T08:40:38.051Z,13.90
2022-10-11T08:43:08.039Z,14.43
2022-10-11T08:45:46.453Z,14.87
2022-10-11T08:48:17.649Z,15.12
2022-10-11T08:50:47.379Z,15.56
2022-10-11T08:53:24.350Z,15.06
2022-10-11T08:55:52.754Z,15.86
2022-10-11T08:58:24.246Z,16.39
2022-10-11T09:00:55.081Z,16.44
2022-10-11T09:03:28.882Z,16.36
2022-10-11T09:06:20.973Z,16.19
2022-10-11T09:09:07.208Z,16.85
2022-10-11T09:11:47.356Z,17.04
2022-10-11T09:14:34.976Z,17.43
2022-10-11T09:17:17.679Z,18.07
2022-10-11T09:19:55.990Z,17.89
2022-10-11T09:22:34.249Z,18.05
2022-10-11T09:25:23.222Z,17.79
2022-10-11T09:28:11.704Z,17.52
2022-10-11T09:30:45.985Z,17.98
2022-10-11T09:33:18.632Z,18.33
2022-10-11T09:35:50.328Z,18.71
2022-10-11T09:38:31.718Z,18.61
2022-10-11T09:41:04.232Z,18.77
2022-10-11T09:43:30.791Z,18.92
2022-10-11T09:45:57.146Z,18.67
2022-10-11T09:48:28.701Z,18.88
2022-10-11T09:51:02.429Z,19.20
2022-10-11T09:54:04.944Z,19.64
2022-10-11T09:56:34.171Z,19.83
2022-10-11T09:59:36.080Z,20.08
2022-10-11T10:02:14.542Z,20.05
2022-10-11T10:05:04.057Z,20.29
2022-10-11T10:07:32.408Z,20.13
2022-10-11T10:09:59.560Z,20.14
2022-10-11T10:12:28.843Z,20.85
2022-10-11T10:15:19.467Z,20.89
2022-10-11T10:17:50.935Z,21.19
2022-10-11T10:20:30.080Z,21.19
2022-10-11T10:22:56.993Z,20.86
2022-10-11T10:25:31.906Z,20.80
2022-10-11T10:28:03.844Z,20.63
2022-10-11T10:30:35.411Z,21.31
2022-10-11T10:33:10.857Z,20.26
2022-10-11T10:35:55.183Z,19.69
2022-10-11T10:38:38.487Z,20.42
2022-10-11T10:41:09.847Z,21.09
2022-10-11T10:43:38.739Z,21.47
2022-10-11T10:46:11.305Z,21.54
2022-10-11T10:49:34.436Z,22.21
2022-10-11T10:52:10.248Z,22.78
2022-10-11T10:54:53.646Z,22.32
2022-10-11T10:57:41.715Z,22.81
2022-10-11T11:00:17.617Z,22.27
2022-10-11T11:03:00.685Z,23.24
2022-10-11T11:05:33.920Z,23.09
2022-10-11T11:08:29.809Z,22.14
2022-10-11T11:11:18.991Z,23.35
2022-10-11T11:13:51.478Z,23.74
2022-10-11T11:16:44.925Z,24.00
2022-10-11T11:19:30.173Z,23.52
2022-10-11T11:22:09.479Z,23.33
2022-10-11T11:25:27.060Z,22.11
2022-10-11T11:27:53.481Z,23.14
2022-10-11T11:30:32.163Z,23.05
2022-10-11T11:33:17.200Z,23.20
2022-10-11T11:35:49.932Z,22.68
2022-10-11T11:38:42.556Z,22.85
2022-10-11T11:41:17.486Z,22.20
2022-10-11T11:44:12.072Z,22.17
2022-10-11T11:46:46.016Z,23.76
2022-10-11T11:49:19.309Z,23.42
2022-10-11T11:51:46.514Z,24.06
2022-10-11T11:54:25.507Z,22.40
2022-10-11T11:57:12.799Z,22.77
2022-10-11T11:59:57.564Z,21.17
2022-10-11T12:02:35.897Z,18.84
2022-10-11T12:05:02.355Z,21.57
2022-10-11T12:07:29.449Z,22.80
2022-10-11T12:10:31.022Z,22.83
2022-10-11T12:13:12.317Z,21.27
2022-10-11T12:15:38.845Z,20.89
2022-10-11T12:18:14.355Z,19.46
2022-10-11T12:20:42.984Z,18.17
2022-10-11T12:23:20.105Z,18.98
2022-10-11T12:26:15.668Z,19.73
2022-10-11T12:28:42.314Z,20.79
2022-10-11T12:31:17.778Z,21.15
2022-10-11T12:33:47.139Z,22.03
2022-10-11T12:36:31.499Z,21.95
2022-10-11T12:39:19.686Z,22.87
2022-10-11T12:41:53.730Z,23.00
2022-10-11T12:44:23.835Z,23.15
2022-10-11T12:46:50.194Z,22.76
2022-10-11T12:49:32.468Z,21.83
2022-10-11T12:52:18.186Z,20.20
2022-10-11T12:55:12.495Z,19.79
2022-10-11T12:57:59.052Z,21.00
2022-10-11T13:00:31.396Z,21.56
2022-10-11T13:03:02.292Z,21.24
2022-10-11T13:05:52.383Z,21.50
2022-10-11T13:08:30.002Z,22.34
2022-10-11T13:11:04.436Z,21.51
2022-10-11T13:13:39.378Z,21.91
2022-10-11T13:16:16.825Z,22.04
2022-10-11T13:18:46.360Z,21.52
2022-10-11T13:21:36.519Z,21.16
2022-10-11T13:24:16.036Z,21.10
2022-10-11T13:26:47.714Z,20.79
2022-10-11T13:29:17.705Z,18.96
2022-10-11T13:31:48.335Z,18.52
2022-10-11T13:34:17.666Z,18.34
2022-10-11T13:36:47.422Z,18.72
2022-10-11T13:39:31.183Z,19.84
2022-10-11T13:41:59.588Z,20.72
2022-10-11T13:44:26.857Z,20.85
2022-10-11T13:46:53.983Z,20.47
2022-10-11T13:49:42.764Z,20.86
2022-10-11T13:52:22.244Z,20.91
2022-10-11T13:55:03.913Z,19.70
2022-10-11T13:57:39.329Z,19.18
2022-10-11T14:00:14.989Z,19.85
2022-10-11T14:02:54.037Z,19.62
2022-10-11T14:05:33.625Z,19.39
2022-10-11T14:08:04.001Z,19.30
2022-10-11T14:10:31.188Z,18.74
2022-10-11T14:13:01.715Z,18.58
2022-10-11T14:15:33.080Z,19.50
2022-10-11T14:18:01.096Z,19.24
2022-10-11T14:20:39.463Z,18.80
2022-10-11T14:23:06.799Z,19.20
2022-10-11T14:25:33.641Z,18.66
2022-10-11T14:27:59.979Z,18.28
2022-10-11T14:30:27.898Z,18.09
2022-10-11T14:32:57.619Z,18.31
2022-10-11T14:35:26.658Z,18.31
2022-10-11T14:37:53.770Z,18.63
2022-10-11T14:40:24.564Z,18.20
2022-10-11T14:42:51.570Z,18.14
2022-10-11T14:45:18.737Z,18.20
2022-10-11T14:47:45.285Z,18.29
2022-10-11T14:50:30.648Z,18.08
2022-10-11T14:52:58.126Z,17.96
2022-10-11T14:55:24.586Z,18.05
2022-10-11T14:57:51.070Z,17.93
2022-10-11T15:00:24.144Z,17.47
2022-10-11T15:02:52.768Z,17.40
2022-10-11T15:05:20.902Z,17.29
2022-10-11T15:07:47.882Z,17.20
2022-10-11T15:10:26.858Z,17.25
2022-10-11T15:12:55.476Z,17.22
2022-10-11T15:15:24.827Z,17.07
2022-10-11T15:17:54.434Z,16.94
2022-10-11T15:20:23.304Z,16.85
2022-10-11T15:22:50.252Z,16.81
2022-10-11T15:25:17.139Z,16.55
2022-10-11T15:27:43.754Z,16.56
2022-10-11T15:30:25.434Z,16.65
2022-10-11T15:32:53.254Z,16.59
2022-10-11T15:35:21.567Z,16.41
2022-10-11T15:37:47.970Z,16.55
2022-10-11T15:40:21.965Z,16.45
2022-10-11T15:42:48.831Z,16.40
2022-10-11T15:45:17.352Z,16.20
2022-10-11T15:47:44.650Z,16.29
2022-10-11T15:50:24.069Z,16.17
2022-10-11T15:52:51.762Z,16.19
2022-10-11T15:55:18.702Z,16.10
2022-10-11T15:57:45.051Z,16.17
2022-10-11T16:00:11.826Z,16.08
2022-10-11T16:02:39.064Z,15.92
2022-10-11T16:05:05.667Z,15.92
2022-10-11T16:07:32.108Z,15.74
2022-10-11T16:09:58.772Z,15.71
2022-10-11T16:12:25.361Z,15.54
2022-10-11T16:14:51.774Z,15.58
2022-10-11T16:17:18.241Z,15.37
2022-10-11T16:19:44.660Z,15.16
2022-10-11T16:22:11.085Z,15.21
2022-10-11T16:24:37.467Z,15.14
2022-10-11T16:27:03.938Z,14.99
2022-10-11T16:29:30.293Z,14.96
2022-10-11T16:31:56.664Z,14.97
2022-10-11T16:34:23.556Z,14.76
2022-10-11T16:36:49.920Z,14.83
2022-10-11T16:39:18.290Z,14.75
2022-10-11T16:41:45.911Z,14.59
2022-10-11T16:44:18.426Z,14.58
2022-10-11T16:46:48.859Z,14.44
2022-10-11T16:49:16.849Z,14.36
2022-10-11T16:51:43.548Z,14.26
2022-10-11T16:54:10.025Z,14.10
2022-10-11T16:56:39.879Z,13.99
2022-10-11T16:59:07.425Z,14.00
2022-10-11T17:01:33.810Z,14.12
2022-10-11T17:04:00.275Z,14.05
2022-10-11T17:06:26.860Z,13.84
2022-10-11T17:08:54.424Z,13.84
2022-10-11T17:11:22.381Z,13.78
2022-10-11T17:13:50.287Z,13.67
2022-10-11T17:16:17.519Z,13.77
2022-10-11T17:18:44.018Z,13.77
2022-10-11T17:21:16.474Z,13.62
2022-10-11T17:23:43.967Z,13.66
2022-10-11T17:26:15.653Z,13.77
2022-10-11T17:28:42.316Z,13.76
2022-10-11T17:31:09.492Z,13.80
2022-10-11T17:33:36.475Z,13.77
2022-10-11T17:36:14.119Z,13.77
2022-10-11T17:38:40.473Z,13.73
2022-10-11T17:41:08.294Z,13.73
2022-10-11T17:43:35.048Z,13.68
2022-10-11T17:46:06.781Z,13.70
2022-10-11T17:48:36.553Z,13.71
2022-10-11T17:51:11.458Z,13.63
2022-10-11T17:53:39.035Z,13.61
2022-10-11T17:56:12.628Z,13.44
2022-10-11T17:58:39.224Z,13.55
2022-10-11T18:01:09.780Z,13.39
2022-10-11T18:03:36.832Z,13.36
2022-10-11T18:06:08.705Z,13.34
2022-10-11T18:08:40.138Z,13.32
2022-10-11T18:11:16.577Z,13.28
2022-10-11T18:13:46.073Z,13.30
2022-10-11T18:16:15.389Z,13.22
2022-10-11T18:18:42.580Z,13.22
2022-10-11T18:21:09.997Z,13.11
2022-10-11T18:23:38.214Z,13.21
2022-10-11T18:26:10.418Z,13.03
2022-10-11T18:28:37.070Z,12.92
2022-10-11T18:31:12.548Z,12.96
2022-10-11T18:33:40.238Z,12.96
2022-10-11T18:36:09.187Z,13.05
2022-10-11T18:38:37.681Z,12.80
2022-10-11T18:41:09.476Z,12.69
2022-10-11T18:43:36.413Z,12.52
2022-10-11T18:46:12.438Z,12.41
2022-10-11T18:48:42.960Z,12.27
2022-10-11T18:51:15.378Z,12.30
2022-10-11T18:53:42.254Z,12.17
2022-10-11T18:56:10.463Z,12.24
2022-10-11T18:58:38.253Z,12.19
2022-10-11T19:01:11.276Z,12.20
2022-10-11T19:03:38.088Z,12.06
2022-10-11T19:06:07.730Z,12.10
2022-10-11T19:08:34.582Z,12.09
2022-10-11T19:11:08.689Z,12.21
2022-10-11T19:13:35.984Z,12.20
2022-10-11T19:16:05.419Z,12.20
2022-10-11T19:18:32.272Z,12.14
2022-10-11T19:21:08.567Z,12.16
2022-10-11T19:23:39.071Z,12.12
2022-10-11T19:26:08.013Z,12.14
2022-10-11T19:28:34.855Z,12.11
2022-10-11T19:31:06.390Z,12.06
2022-10-11T19:33:34.245Z,12.04
2022-10-11T19:36:05.341Z,11.85
2022-10-11T19:38:33.591Z,11.95
2022-10-11T19:41:04.282Z,11.87
2022-10-11T19:43:34.511Z,11.81
2022-10-11T19:46:02.508Z,11.80
2022-10-11T19:48:30.096Z,11.83
2022-10-11T19:51:05.325Z,11.76
2022-10-11T19:53:32.521Z,11.81
2022-10-11T19:56:04.147Z,11.76
2022-10-11T19:58:30.598Z,11.72
2022-10-11T20:01:07.254Z,11.61
2022-10-11T20:03:34.228Z,11.63
2022-10-11T20:06:08.084Z,11.67
2022-10-11T20:08:36.051Z,11.69
2022-10-11T20:11:05.572Z,11.46
2022-10-11T20:13:35.017Z,11.70
2022-10-11T20:16:10.913Z,11.66
2022-10-11T20:18:38.472Z,11.75
2022-10-11T20:21:08.629Z,11.67
2022-10-11T20:23:35.625Z,11.60
2022-10-11T20:26:12.036Z,11.55
2022-10-11T20:28:39.831Z,11.56
2022-10-11T20:31:26.021Z,11.62
2022-10-11T20:33:58.959Z,11.54
2022-10-11T20:36:29.489Z,11.50
2022-10-11T20:38:57.156Z,11.48
2022-10-11T20:41:26.804Z,11.46
2022-10-11T20:43:56.107Z,11.49
2022-10-11T20:46:28.410Z,11.34
2022-10-11T20:49:01.628Z,11.32
2022-10-11T20:51:30.507Z,11.39
2022-10-11T20:53:57.936Z,11.39
2022-10-11T20:56:24.352Z,11.38
2022-10-11T20:58:53.160Z,11.35
2022-10-11T21:01:22.863Z,11.30
2022-10-11T21:03:50.313Z,11.45
2022-10-11T21:06:16.821Z,11.34
2022-10-11T21:08:43.264Z,11.25
2022-10-11T21:11:10.543Z,11.16
2022-10-11T21:13:37.794Z,11.18
2022-10-11T21:16:13.104Z,11.29
2022-10-11T21:18:39.937Z,11.45
2022-10-11T21:21:12.514Z,11.28
2022-10-11T21:23:39.770Z,11.35
2022-10-11T21:26:08.845Z,11.33
2022-10-11T21:28:35.437Z,11.30
2022-10-11T21:31:09.653Z,11.21
2022-10-11T21:33:36.710Z,11.25
2022-10-11T21:36:14.743Z,11.29
2022-10-11T21:38:41.770Z,11.27
2022-10-11T21:41:11.317Z,11.26
2022-10-11T21:43:38.383Z,11.17
2022-10-11T21:46:10.439Z,11.12
2022-10-11T21:48:36.880Z,11.13
2022-10-11T21:51:03.393Z,11.09
2022-10-11T21:53:30.006Z,11.02
2022-10-11T21:56:00.617Z,10.94
2022-10-11T21:58:27.792Z,10.89
2022-10-11T22:00:54.938Z,10.84
2022-10-11T22:03:21.391Z,10.87
2022-10-11T22:05:48.421Z,10.82
2022-10-11T22:08:15.283Z,11.01
2022-10-11T22:10:51.858Z,11.07
2022-10-11T22:13:18.225Z,11.05
2022-10-11T22:15:44.632Z,11.12
2022-10-11T22:18:10.970Z,11.16
2022-10-11T22:20:37.359Z,11.09
2022-10-11T22:23:03.784Z,10.99
2022-10-11T22:25:30.581Z,11.02
2022-10-11T22:27:57.089Z,11.04
2022-10-11T22:30:23.455Z,10.96
2022-10-11T22:32:51.343Z,10.98
2022-10-11T22:35:18.178Z,10.92
2022-10-11T22:37:44.581Z,11.01
2022-10-11T22:40:11.244Z,10.99
2022-10-11T22:42:37.717Z,11.10
2022-10-11T22:45:04.865Z,11.00
2022-10-11T22:47:31.236Z,11.00
2022-10-11T22:49:57.593Z,10.96
2022-10-11T22:52:23.961Z,10.95
2022-10-11T22:54:50.306Z,10.83
2022-10-11T22:57:16.665Z,10.86
2022-10-11T22:59:43.251Z,10.89
2022-10-11T23:02:09.690Z,10.82
2022-10-11T23:04:36.053Z,10.61
2022-10-11T23:07:04.925Z,10.68
2022-10-11T23:09:31.730Z,10.74
2022-10-11T23:11:59.061Z,10.60
2022-10-11T23:14:25.491Z,10.47
2022-10-11T23:16:52.006Z,10.43
2022-10-11T23:19:18.471Z,10.44
2022-10-11T23:21:45.300Z,10.34
2022-10-11T23:24:11.701Z,10.44
2022-10-11T23:26:38.208Z,10.30
2022-10-11T23:29:04.578Z,10.24
2022-10-11T23:31:30.944Z,10.19
2022-10-11T23:33:57.602Z,10.09
2022-10-11T23:36:25.721Z,9.99
2022-10-11T23:38:57.548Z,10.03
2022-10-11T23:41:26.465Z,9.90
2022-10-11T23:43:52.965Z,9.82
2022-10-11T23:46:19.517Z,9.78
2022-10-11T23:48:45.919Z,9.83
2022-10-11T23:51:12.323Z,9.89
2022-10-11T23:53:38.713Z,9.99
2022-10-11T23:56:05.665Z,10.05
2022-10-11T23:58:32.079Z,9.92
